createdAt,value
2024-05-09T00:00:47.818Z,53.64
2024-05-09T00:03:16.034Z,56.09
2024-05-09T00:05:44.426Z,55.29
2024-05-09T00:08:12.838Z,55.65
2024-05-09T00:10:41.574Z,56.17
2024-05-09T00:13:11.072Z,56.45
2024-05-09T00:15:39.580Z,56.42
2024-05-09T00:18:08.696Z,56.62
2024-05-09T00:20:40.135Z,56.69
2024-05-09T00:23:18.836Z,56.84
2024-05-09T00:25:46.882Z,56.92
2024-05-09T00:28:15.052Z,56.43
2024-05-09T00:30:43.045Z,57.21
2024-05-09T00:33:11.895Z,56.50
2024-05-09T00:35:41.546Z,56.09
2024-05-09T00:38:10.705Z,56.34
2024-05-09T00:40:43.402Z,56.54
2024-05-09T00:43:13.729Z,56.96
2024-05-09T00:45:43.988Z,56.39
2024-05-09T00:48:17.521Z,56.12
2024-05-09T00:50:48.467Z,56.97
2024-05-09T00:53:19.000Z,57.30
2024-05-09T00:55:47.795Z,57.42
2024-05-09T00:58:18.781Z,57.08
2024-05-09T01:00:49.028Z,57.81
2024-05-09T01:03:18.235Z,57.92
2024-05-09T01:05:46.558Z,57.61
2024-05-09T01:08:14.941Z,57.61
2024-05-09T01:10:46.139Z,57.74
2024-05-09T01:13:16.189Z,58.00
2024-05-09T01:15:44.501Z,58.23
2024-05-09T01:18:13.864Z,57.86
2024-05-09T01:20:44.678Z,57.80
2024-05-09T01:23:15.843Z,58.08
2024-05-09T01:25:46.373Z,58.88
2024-05-09T01:28:16.575Z,58.64
2024-05-09T01:30:44.868Z,58.87
2024-05-09T01:33:13.697Z,59.31
2024-05-09T01:35:43.005Z,59.48
2024-05-09T01:38:13.759Z,60.08
2024-05-09T01:40:43.834Z,60.32
2024-05-09T01:43:12.435Z,60.03
2024-05-09T01:45:41.290Z,59.95
2024-05-09T01:48:11.164Z,60.97
2024-05-09T01:50:42.352Z,60.85
2024-05-09T01:53:14.355Z,60.54
2024-05-09T01:55:44.091Z,60.43
2024-05-09T01:58:12.676Z,60.20
2024-05-09T02:00:42.691Z,60.54
2024-05-09T02:03:16.038Z,60.75
2024-05-09T02:05:47.424Z,60.64
2024-05-09T02:08:19.277Z,60.24
2024-05-09T02:10:49.346Z,60.64
2024-05-09T02:13:18.167Z,60.49
2024-05-09T02:15:46.754Z,60.76
2024-05-09T02:18:15.113Z,61.20
2024-05-09T02:20:44.040Z,61.43
2024-05-09T02:23:12.717Z,61.57
2024-05-09T02:25:44.129Z,61.62
2024-05-09T02:28:12.162Z,61.93
2024-05-09T02:30:41.996Z,61.60
2024-05-09T02:33:12.957Z,61.30
2024-05-09T02:35:44.097Z,61.71
2024-05-09T02:38:13.096Z,61.34
2024-05-09T02:40:41.516Z,61.46
2024-05-09T02:43:12.773Z,61.32
2024-05-09T02:45:41.365Z,61.57
2024-05-09T02:48:13.977Z,61.80
2024-05-09T02:50:44.406Z,61.42
2024-05-09T02:53:13.328Z,61.00
2024-05-09T02:55:42.531Z,61.16
2024-05-09T02:58:11.804Z,60.89
2024-05-09T03:00:42.090Z,61.35
2024-05-09T03:03:14.040Z,61.62
2024-05-09T03:05:44.884Z,61.74
2024-05-09T03:08:13.516Z,62.07
2024-05-09T03:10:41.701Z,62.03
2024-05-09T03:13:12.903Z,62.22
2024-05-09T03:15:43.017Z,61.76
2024-05-09T03:18:11.841Z,61.94
2024-05-09T03:20:40.958Z,62.14
2024-05-09T03:23:10.051Z,61.81
2024-05-09T03:25:39.141Z,61.73
2024-05-09T03:28:07.673Z,62.30
2024-05-09T03:30:41.244Z,61.93
2024-05-09T03:33:13.478Z,62.28
2024-05-09T03:35:44.154Z,62.42
2024-05-09T03:38:12.417Z,62.55
2024-05-09T03:40:49.031Z,62.08
2024-05-09T03:43:18.246Z,61.94
2024-05-09T03:45:48.640Z,62.17
2024-05-09T03:48:17.339Z,61.94
2024-05-09T03:50:45.782Z,62.00
2024-05-09T03:53:14.664Z,62.42
2024-05-09T03:55:42.933Z,62.09
2024-05-09T03:58:12.980Z,62.98
2024-05-09T04:00:42.810Z,62.27
2024-05-09T04:03:12.685Z,62.85
2024-05-09T04:05:43.026Z,63.05
2024-05-09T04:08:15.157Z,62.13
2024-05-09T04:10:44.001Z,62.56
2024-05-09T04:13:12.151Z,61.94
2024-05-09T04:15:40.581Z,61.62
2024-05-09T04:18:08.762Z,61.03
2024-05-09T04:20:39.978Z,59.63
2024-05-09T04:23:13.970Z,58.68
2024-05-09T04:25:45.342Z,58.27
2024-05-09T04:28:14.243Z,56.96
2024-05-09T04:30:42.971Z,56.79
2024-05-09T04:33:13.457Z,57.32
2024-05-09T04:35:43.774Z,56.56
2024-05-09T04:38:13.819Z,57.07
2024-05-09T04:40:42.571Z,57.20
2024-05-09T04:43:15.951Z,59.20
2024-05-09T04:45:44.772Z,57.89
2024-05-09T04:48:13.331Z,55.82
2024-05-09T04:50:41.900Z,56.49
2024-05-09T04:53:11.353Z,56.73
2024-05-09T04:55:40.588Z,57.42
2024-05-09T04:58:09.823Z,56.03
2024-05-09T05:00:41.565Z,57.06
2024-05-09T05:03:14.531Z,56.18
2024-05-09T05:05:45.458Z,56.16
2024-05-09T05:08:16.996Z,56.57
2024-05-09T05:10:46.977Z,58.07
2024-05-09T05:13:18.026Z,57.37
2024-05-09T05:15:47.528Z,58.05
2024-05-09T05:18:16.660Z,56.70
2024-05-09T05:20:45.234Z,56.73
2024-05-09T05:23:19.607Z,56.32
2024-05-09T05:25:49.525Z,57.80
2024-05-09T05:28:17.874Z,58.48
2024-05-09T05:30:46.470Z,59.42
2024-05-09T05:33:16.178Z,59.86
2024-05-09T05:35:44.513Z,60.40
2024-05-09T05:38:12.932Z,60.13
2024-05-09T05:40:41.376Z,59.73
2024-05-09T05:43:16.891Z,58.78
2024-05-09T05:45:45.738Z,59.50
2024-05-09T05:48:17.171Z,59.98
2024-05-09T05:50:46.098Z,59.86
2024-05-09T05:53:14.656Z,58.30
2024-05-09T05:55:42.898Z,59.13
2024-05-09T05:58:15.135Z,58.49
2024-05-09T06:00:43.529Z,58.40
2024-05-09T06:03:13.573Z,58.39
2024-05-09T06:05:46.796Z,57.13
2024-05-09T06:08:15.127Z,57.88
2024-05-09T06:10:43.310Z,58.86
2024-05-09T06:13:13.567Z,58.13
2024-05-09T06:15:43.224Z,58.68
2024-05-09T06:18:12.547Z,57.49
2024-05-09T06:20:43.625Z,58.83
2024-05-09T06:23:13.137Z,58.61
2024-05-09T06:25:42.680Z,57.37
2024-05-09T06:28:11.330Z,57.51
2024-05-09T06:30:42.555Z,57.28
2024-05-09T06:33:13.851Z,57.82
2024-05-09T06:35:45.947Z,58.22
2024-05-09T06:38:14.465Z,58.24
2024-05-09T06:40:44.140Z,58.13
2024-05-09T06:43:18.558Z,58.69
2024-05-09T06:45:49.233Z,58.29
2024-05-09T06:48:19.499Z,58.44
2024-05-09T06:50:48.413Z,59.11
2024-05-09T06:53:17.387Z,58.24
2024-05-09T06:55:45.818Z,57.62
2024-05-09T06:58:13.841Z,57.21
2024-05-09T07:00:42.585Z,57.76
2024-05-09T07:03:14.169Z,57.66
2024-05-09T07:05:46.276Z,57.99
2024-05-09T07:08:15.179Z,57.56
2024-05-09T07:10:44.604Z,56.58
2024-05-09T07:13:14.281Z,56.75
2024-05-09T07:15:43.252Z,55.50
2024-05-09T07:18:18.281Z,53.70
2024-05-09T07:20:48.223Z,53.76
2024-05-09T07:23:17.172Z,53.86
2024-05-09T07:25:46.235Z,51.48
2024-05-09T07:28:18.809Z,49.66
2024-05-09T07:30:47.443Z,50.71
2024-05-09T07:33:20.553Z,50.67
2024-05-09T07:35:50.276Z,50.46
2024-05-09T07:38:18.906Z,49.90
2024-05-09T07:40:47.083Z,48.91
2024-05-09T07:43:16.361Z,48.39
2024-05-09T07:45:52.153Z,47.49
2024-05-09T07:53:39.984Z,48.38
2024-05-09T07:56:13.951Z,48.55
2024-05-09T07:58:43.851Z,52.28
2024-05-09T08:01:12.045Z,50.98
2024-05-09T08:03:40.657Z,52.04
2024-05-09T08:06:08.841Z,52.61
2024-05-09T08:08:36.984Z,50.63
2024-05-09T08:11:06.568Z,51.57
2024-05-09T08:13:34.878Z,51.00
2024-05-09T08:16:03.555Z,61.73
2024-05-09T08:18:31.996Z,62.33
2024-05-09T08:21:00.163Z,61.61
2024-05-09T08:23:29.057Z,64.41
2024-05-09T08:25:57.353Z,59.88
2024-05-09T08:28:25.684Z,58.17
2024-05-09T08:30:54.062Z,57.62
2024-05-09T08:33:22.385Z,56.69
2024-05-09T08:35:50.540Z,55.16
2024-05-09T08:38:19.090Z,53.63
2024-05-09T08:40:48.769Z,55.53
2024-05-09T08:43:20.152Z,54.94
2024-05-09T08:48:18.359Z,52.64
2024-05-09T08:50:47.809Z,54.04
2024-05-09T08:53:16.121Z,52.78
2024-05-09T08:55:46.303Z,53.77
2024-05-09T08:58:19.703Z,54.16
2024-05-09T09:00:49.504Z,52.09
2024-05-09T09:03:19.948Z,51.18
2024-05-09T09:05:59.452Z,49.42
2024-05-09T09:08:28.564Z,48.49
2024-05-09T09:10:59.858Z,47.90
2024-05-09T09:13:28.247Z,46.65
2024-05-09T09:16:00.182Z,47.09
2024-05-09T09:18:30.706Z,46.01
2024-05-09T09:20:59.039Z,42.56
2024-05-09T09:23:30.810Z,44.11
2024-05-09T09:26:01.595Z,42.72
2024-05-09T09:28:31.642Z,41.35
2024-05-09T09:31:04.876Z,40.08
2024-05-09T09:33:36.144Z,40.51
2024-05-09T09:36:06.979Z,41.58
2024-05-09T09:38:37.561Z,40.29
2024-05-09T09:41:08.040Z,40.51
2024-05-09T09:43:37.138Z,40.05
2024-05-09T09:46:09.569Z,40.20
2024-05-09T09:48:40.708Z,40.78
2024-05-09T09:51:09.905Z,41.63
2024-05-09T09:53:38.623Z,42.25
2024-05-09T09:56:07.896Z,41.01
2024-05-09T09:58:38.933Z,38.70
2024-05-09T10:01:07.145Z,39.45
2024-05-09T10:03:35.563Z,39.68
2024-05-09T10:06:05.762Z,42.57
2024-05-09T10:08:35.763Z,41.02
2024-05-09T10:11:04.409Z,40.33
2024-05-09T10:13:34.005Z,41.92
2024-05-09T10:16:09.335Z,42.92
2024-05-09T10:18:38.720Z,41.23
2024-05-09T10:21:16.636Z,40.00
2024-05-09T10:23:57.005Z,40.44
2024-05-09T10:26:35.059Z,39.78
2024-05-09T10:29:25.746Z,40.17
2024-05-09T10:31:54.166Z,39.16
2024-05-09T10:34:23.538Z,39.86
2024-05-09T10:36:55.368Z,40.27
2024-05-09T10:39:25.542Z,40.14
2024-05-09T10:41:53.717Z,40.71
2024-05-09T10:44:21.765Z,41.78
2024-05-09T10:46:50.498Z,43.54
2024-05-09T10:49:18.751Z,42.58
2024-05-09T10:51:48.503Z,42.60
2024-05-09T10:54:17.059Z,43.49
2024-05-09T10:56:45.189Z,43.66
2024-05-09T10:59:13.320Z,43.98
2024-05-09T11:01:41.683Z,41.51
2024-05-09T11:04:10.109Z,42.24
2024-05-09T11:06:38.953Z,42.96
2024-05-09T11:09:07.811Z,42.70
2024-05-09T11:11:36.195Z,41.74
2024-05-09T11:14:13.878Z,41.17
2024-05-09T11:16:42.118Z,40.92
2024-05-09T11:19:14.110Z,41.37
2024-05-09T11:21:42.817Z,42.49
2024-05-09T11:24:11.793Z,42.50
2024-05-09T11:26:40.027Z,42.85
2024-05-09T11:29:08.053Z,40.94
2024-05-09T11:31:48.504Z,40.49
2024-05-09T11:34:16.795Z,40.65
2024-05-09T11:36:45.060Z,41.03
2024-05-09T11:39:14.814Z,40.63
2024-05-09T11:41:43.080Z,41.98
2024-05-09T11:44:11.092Z,41.97
2024-05-09T11:46:39.310Z,42.35
2024-05-09T11:49:09.509Z,42.37
2024-05-09T11:51:37.825Z,41.02
2024-05-09T11:54:05.804Z,39.79
2024-05-09T11:56:34.051Z,40.94
2024-05-09T11:59:02.066Z,41.93
2024-05-09T12:01:30.403Z,39.52
2024-05-09T12:03:58.900Z,42.50
2024-05-09T12:06:27.400Z,41.20
2024-05-09T12:08:56.169Z,39.27
2024-05-09T12:11:24.368Z,39.91
2024-05-09T12:13:52.521Z,38.57
2024-05-09T12:16:20.937Z,38.66
2024-05-09T12:18:49.256Z,39.54
2024-05-09T12:21:18.027Z,40.54
2024-05-09T12:23:46.032Z,37.88
2024-05-09T12:26:16.092Z,40.77
2024-05-09T12:28:44.372Z,38.51
2024-05-09T12:31:12.379Z,38.70
2024-05-09T12:33:40.740Z,40.18
2024-05-09T12:36:08.958Z,39.13
2024-05-09T12:38:37.082Z,38.62
2024-05-09T12:41:05.744Z,39.77
2024-05-09T12:43:33.838Z,39.01
2024-05-09T12:46:03.451Z,39.87
2024-05-09T12:48:31.741Z,39.79
2024-05-09T12:50:59.932Z,40.89
2024-05-09T12:53:28.107Z,40.62
2024-05-09T12:56:00.141Z,39.96
2024-05-09T12:58:30.876Z,39.45
2024-05-09T13:00:59.158Z,38.86
2024-05-09T13:03:27.424Z,38.69
2024-05-09T13:05:55.777Z,39.07
2024-05-09T13:08:24.263Z,39.13
2024-05-09T13:10:52.363Z,38.40
2024-05-09T13:13:20.503Z,39.00
2024-05-09T13:15:48.963Z,39.12
2024-05-09T13:18:17.000Z,38.82
2024-05-09T13:20:45.156Z,39.79
2024-05-09T13:23:13.338Z,38.66
2024-05-09T13:25:41.291Z,39.01
2024-05-09T13:28:09.628Z,38.14
2024-05-09T13:30:41.052Z,39.01
2024-05-09T13:33:12.135Z,38.67
2024-05-09T13:35:46.867Z,39.33
2024-05-09T13:38:19.278Z,39.14
2024-05-09T13:40:48.295Z,40.48
2024-05-09T13:43:17.602Z,38.07
2024-05-09T13:45:46.506Z,38.41
2024-05-09T13:48:14.990Z,41.72
2024-05-09T13:50:43.219Z,40.30
2024-05-09T13:53:11.925Z,40.77
2024-05-09T13:55:40.563Z,42.51
2024-05-09T13:58:09.544Z,40.28
2024-05-09T14:00:46.290Z,40.69
2024-05-09T14:03:19.288Z,39.61
2024-05-09T14:05:50.984Z,39.00
2024-05-09T14:08:22.684Z,41.92
2024-05-09T14:10:52.383Z,38.08
2024-05-09T14:13:20.771Z,37.17
2024-05-09T14:15:49.378Z,37.64
2024-05-09T14:18:18.089Z,37.75
2024-05-09T14:20:46.304Z,37.35
2024-05-09T14:23:15.104Z,38.78
2024-05-09T14:25:44.526Z,37.96
2024-05-09T14:28:13.860Z,38.25
2024-05-09T14:30:42.792Z,37.19
2024-05-09T14:33:11.729Z,37.25
2024-05-09T14:35:40.228Z,37.67
2024-05-09T14:38:09.003Z,39.56
2024-05-09T14:40:42.449Z,37.69
2024-05-09T14:43:13.978Z,36.41
2024-05-09T14:45:43.771Z,36.95
2024-05-09T14:48:15.108Z,37.59
2024-05-09T14:50:43.552Z,37.01
2024-05-09T14:53:13.628Z,36.96
2024-05-09T14:55:43.410Z,37.50
2024-05-09T14:58:13.373Z,38.26
2024-05-09T15:00:46.449Z,37.38
2024-05-09T15:03:19.767Z,37.19
2024-05-09T15:05:49.254Z,37.07
2024-05-09T15:08:18.456Z,36.11
2024-05-09T15:10:49.866Z,36.51
2024-05-09T15:13:19.772Z,37.06
2024-05-09T15:15:48.442Z,37.57
2024-05-09T15:18:18.070Z,36.93
2024-05-09T15:20:46.473Z,37.70
2024-05-09T15:23:14.656Z,37.85
2024-05-09T15:25:44.868Z,38.07
2024-05-09T15:28:13.375Z,38.01
2024-05-09T15:30:45.234Z,38.12
2024-05-09T15:33:14.888Z,37.00
2024-05-09T15:35:43.236Z,36.62
2024-05-09T15:38:11.426Z,36.52
2024-05-09T15:40:40.879Z,37.32
2024-05-09T15:43:10.980Z,36.67
2024-05-09T15:45:41.287Z,37.11
2024-05-09T15:48:10.979Z,36.07
2024-05-09T15:50:41.735Z,35.10
2024-05-09T15:53:13.306Z,36.02
2024-05-09T15:55:42.730Z,36.41
2024-05-09T15:58:11.241Z,37.94
2024-05-09T16:00:42.429Z,37.54
2024-05-09T16:03:14.601Z,36.34
2024-05-09T16:05:45.737Z,36.59
2024-05-09T16:08:15.576Z,36.29
2024-05-09T16:10:46.270Z,35.85
2024-05-09T16:13:17.199Z,36.13
2024-05-09T16:15:45.965Z,35.56
2024-05-09T16:18:14.525Z,35.99
2024-05-09T16:20:44.743Z,35.22
2024-05-09T16:23:14.432Z,35.46
2024-05-09T16:25:48.276Z,36.44
2024-05-09T16:28:16.955Z,37.17
2024-05-09T16:30:45.630Z,35.99
2024-05-09T16:33:13.983Z,36.60
2024-05-09T16:35:42.088Z,35.72
2024-05-09T16:38:10.329Z,35.24
2024-05-09T16:40:40.819Z,35.80
2024-05-09T16:43:11.583Z,35.23
2024-05-09T16:45:41.571Z,35.37
2024-05-09T16:48:09.968Z,35.55
2024-05-09T16:50:39.104Z,36.71
2024-05-09T16:53:07.915Z,37.71
2024-05-09T16:55:36.405Z,36.56
2024-05-09T16:58:06.924Z,36.13
2024-05-09T17:00:41.067Z,36.17
2024-05-09T17:03:15.878Z,36.80
2024-05-09T17:05:46.916Z,36.15
2024-05-09T17:08:20.012Z,36.21
2024-05-09T17:10:49.453Z,36.75
2024-05-09T17:13:19.201Z,36.90
2024-05-09T17:15:48.812Z,36.61
2024-05-09T17:18:17.296Z,36.95
2024-05-09T17:20:45.489Z,37.08
2024-05-09T17:23:14.435Z,37.56
2024-05-09T17:25:43.078Z,37.28
2024-05-09T17:28:12.158Z,37.77
2024-05-09T17:30:42.225Z,37.53
2024-05-09T17:33:12.283Z,37.75
2024-05-09T17:35:41.205Z,37.73
2024-05-09T17:38:09.562Z,37.88
2024-05-09T17:40:38.893Z,37.70
2024-05-09T17:43:09.755Z,37.94
2024-05-09T17:45:40.946Z,38.67
2024-05-09T17:48:11.939Z,37.70
2024-05-09T17:50:41.883Z,37.53
2024-05-09T17:53:10.976Z,37.69
2024-05-09T17:55:40.213Z,40.04
2024-05-09T17:58:08.770Z,41.52
2024-05-09T18:00:40.644Z,41.14
2024-05-09T18:03:12.198Z,41.42
2024-05-09T18:05:42.885Z,41.17
2024-05-09T18:08:12.572Z,41.61
2024-05-09T18:10:41.482Z,40.83
2024-05-09T18:13:11.085Z,40.72
2024-05-09T18:15:39.786Z,41.89
2024-05-09T18:18:09.467Z,37.97
2024-05-09T18:20:43.705Z,37.24
2024-05-09T18:23:16.520Z,38.17
2024-05-09T18:25:46.412Z,38.78
2024-05-09T18:28:16.136Z,40.15
2024-05-09T18:30:44.560Z,39.39
2024-05-09T18:33:13.117Z,40.25
2024-05-09T18:35:43.422Z,40.05
2024-05-09T18:38:11.549Z,40.01
2024-05-09T18:40:41.156Z,39.67
2024-05-09T18:43:11.270Z,39.23
2024-05-09T18:45:39.891Z,39.57
2024-05-09T18:48:11.485Z,40.46
2024-05-09T18:50:41.196Z,40.43
2024-05-09T18:53:11.813Z,40.37
2024-05-09T18:55:42.167Z,39.65
2024-05-09T18:58:10.468Z,40.75
2024-05-09T19:00:41.334Z,41.68
2024-05-09T19:03:13.964Z,40.73
2024-05-09T19:05:44.643Z,41.60
2024-05-09T19:08:15.346Z,41.89
2024-05-09T19:10:45.783Z,42.72
2024-05-09T19:13:14.952Z,41.46
2024-05-09T19:15:44.066Z,41.42
2024-05-09T19:18:14.458Z,41.68
2024-05-09T19:20:43.983Z,40.71
2024-05-09T19:23:12.468Z,41.25
2024-05-09T19:25:40.688Z,41.57
2024-05-09T19:28:09.002Z,41.37
2024-05-09T19:30:41.132Z,41.45
2024-05-09T19:33:13.101Z,42.63
2024-05-09T19:35:42.892Z,42.61
2024-05-09T19:38:12.013Z,43.34
2024-05-09T19:40:40.447Z,43.34
2024-05-09T19:43:08.889Z,41.86
2024-05-09T19:45:37.364Z,42.38
2024-05-09T19:48:06.713Z,42.11
2024-05-09T19:50:41.661Z,43.52
2024-05-09T19:53:13.521Z,43.55
2024-05-09T19:55:42.501Z,42.29
2024-05-09T19:58:11.553Z,42.62
2024-05-09T20:00:42.682Z,42.82
2024-05-09T20:03:14.090Z,42.52
2024-05-09T20:05:45.498Z,42.11
2024-05-09T20:08:14.399Z,43.43
2024-05-09T20:10:42.725Z,43.01
2024-05-09T20:13:10.989Z,43.47
2024-05-09T20:15:40.195Z,43.13
2024-05-09T20:18:08.498Z,43.57
2024-05-09T20:20:40.527Z,44.04
2024-05-09T20:23:12.359Z,43.20
2024-05-09T20:25:41.717Z,43.46
2024-05-09T20:28:10.369Z,43.34
2024-05-09T20:30:38.963Z,44.20
2024-05-09T20:33:08.713Z,43.75
2024-05-09T20:35:37.975Z,43.67
2024-05-09T20:38:06.090Z,43.68
2024-05-09T20:40:37.867Z,43.61
2024-05-09T20:43:08.695Z,44.23
2024-05-09T20:45:37.150Z,43.84
2024-05-09T20:48:06.309Z,44.05
2024-05-09T20:50:39.395Z,44.36
2024-05-09T20:53:12.909Z,43.68
2024-05-09T20:55:43.210Z,43.80
2024-05-09T20:58:12.006Z,43.61
2024-05-09T21:00:43.603Z,43.99
2024-05-09T21:03:16.508Z,44.00
2024-05-09T21:05:46.410Z,43.86
2024-05-09T21:08:15.362Z,43.66
2024-05-09T21:10:43.571Z,44.31
2024-05-09T21:13:12.147Z,44.72
2024-05-09T21:15:40.231Z,43.92
2024-05-09T21:18:08.528Z,45.01
2024-05-09T21:20:37.703Z,44.39
2024-05-09T21:23:06.097Z,44.71
2024-05-09T21:25:34.179Z,44.92
2024-05-09T21:28:03.050Z,44.74
2024-05-09T21:30:38.842Z,44.49
2024-05-09T21:33:13.871Z,43.99
2024-05-09T21:35:43.993Z,44.57
2024-05-09T21:38:16.370Z,44.06
2024-05-09T21:40:45.126Z,44.68
2024-05-09T21:43:14.595Z,45.49
2024-05-09T21:45:43.536Z,45.16
2024-05-09T21:48:13.362Z,45.59
2024-05-09T21:50:42.588Z,46.43
2024-05-09T21:53:12.518Z,45.93
2024-05-09T21:55:44.511Z,45.68
2024-05-09T21:58:14.611Z,46.46
2024-05-09T22:00:45.633Z,46.27
2024-05-09T22:03:14.279Z,46.35
2024-05-09T22:05:44.419Z,47.26
2024-05-09T22:08:13.248Z,47.03
2024-05-09T22:10:41.491Z,47.53
2024-05-09T22:13:09.861Z,47.41
2024-05-09T22:15:39.931Z,47.88
2024-05-09T22:18:10.555Z,47.57
2024-05-09T22:20:45.555Z,48.26
2024-05-09T22:23:15.868Z,48.89
2024-05-09T22:25:44.223Z,49.11
2024-05-09T22:28:18.063Z,48.63
2024-05-09T22:30:47.322Z,48.79
2024-05-09T22:33:16.157Z,49.44
2024-05-09T22:35:44.319Z,49.76
2024-05-09T22:38:12.511Z,50.27
2024-05-09T22:40:47.374Z,50.43
2024-05-09T22:43:19.677Z,50.72
2024-05-09T22:45:48.244Z,51.30
2024-05-09T22:48:16.616Z,51.64
2024-05-09T22:50:45.132Z,51.80
2024-05-09T22:53:13.226Z,52.31
2024-05-09T22:55:41.497Z,52.05
2024-05-09T22:58:09.729Z,52.24
2024-05-09T23:00:37.899Z,52.44
2024-05-09T23:03:06.316Z,52.66
2024-05-09T23:05:34.569Z,53.13
2024-05-09T23:08:02.998Z,53.70
2024-05-09T23:10:36.397Z,53.77
2024-05-09T23:13:07.824Z,54.22
2024-05-09T23:15:40.190Z,54.07
2024-05-09T23:18:08.628Z,54.09
2024-05-09T23:20:39.679Z,54.11
2024-05-09T23:23:10.753Z,54.79
2024-05-09T23:25:43.934Z,54.68
2024-05-09T23:28:12.580Z,55.39
2024-05-09T23:30:42.084Z,55.67
2024-05-09T23:33:12.678Z,55.62
2024-05-09T23:35:42.466Z,55.98
2024-05-09T23:38:10.555Z,55.78
2024-05-09T23:40:40.887Z,56.07
2024-05-09T23:43:11.372Z,56.23
2024-05-09T23:45:40.951Z,56.17
2024-05-09T23:48:09.720Z,56.24
2024-05-09T23:50:39.590Z,56.31
2024-05-09T23:53:09.803Z,56.08
2024-05-09T23:55:39.183Z,56.29
2024-05-09T23:58:07.798Z,56.41
